createdAt,value
2019-03-06T00:02:14.071Z,2.39
2019-03-06T00:04:47.362Z,1.37
2019-03-06T00:07:22.757Z,-0.64
2019-03-06T00:09:55.291Z,-1.73
2019-03-06T00:12:30.059Z,-2.04
2019-03-06T00:15:04.683Z,-1.07
2019-03-06T00:17:38.030Z,-0.79
2019-03-06T00:20:11.747Z,-0.70
2019-03-06T00:22:46.626Z,-0.16
2019-03-06T00:25:20.010Z,-0.97
2019-03-06T00:27:55.015Z,-1.00
2019-03-06T00:30:28.227Z,-1.35
2019-03-06T00:33:01.575Z,-1.45
2019-03-06T00:35:34.850Z,-1.47
2019-03-06T00:38:08.459Z,-1.24
2019-03-06T00:40:42.162Z,-0.64
2019-03-06T00:43:15.723Z,-0.80
2019-03-06T00:45:48.941Z,-0.76
2019-03-06T00:48:22.239Z,-1.61
2019-03-06T00:50:55.760Z,-0.90
2019-03-06T00:53:29.047Z,-1.04
2019-03-06T00:56:02.301Z,-1.12
2019-03-06T00:58:35.718Z,-1.20
2019-03-06T01:01:09.670Z,-0.52
2019-03-06T01:03:43.199Z,-0.40
2019-03-06T01:06:16.555Z,-1.05
2019-03-06T01:08:50.047Z,-0.87
2019-03-06T01:11:23.501Z,-0.46
2019-03-06T01:13:58.513Z,-0.01
2019-03-06T01:16:31.819Z,1.39
2019-03-06T01:19:05.174Z,1.17
2019-03-06T01:21:38.435Z,0.28
2019-03-06T01:24:11.670Z,0.15
2019-03-06T01:26:45.088Z,1.85
2019-03-06T01:29:18.371Z,2.13
2019-03-06T01:31:51.777Z,1.59
2019-03-06T01:34:25.022Z,1.14
2019-03-06T01:36:58.432Z,0.99
2019-03-06T01:39:33.136Z,0.98
2019-03-06T01:42:06.533Z,1.42
2019-03-06T01:44:41.778Z,1.23
2019-03-06T01:47:17.769Z,0.50
2019-03-06T01:49:51.975Z,0.94
2019-03-06T01:52:25.280Z,0.43
2019-03-06T01:54:58.524Z,1.53
2019-03-06T01:57:31.758Z,1.42
2019-03-06T02:00:05.378Z,1.41
2019-03-06T02:02:38.577Z,1.41
2019-03-06T02:05:13.791Z,1.28
2019-03-06T02:07:47.345Z,0.99
2019-03-06T02:10:20.708Z,1.38
2019-03-06T02:12:56.000Z,1.12
2019-03-06T02:15:29.546Z,1.03
2019-03-06T02:18:02.971Z,1.32
2019-03-06T02:20:36.291Z,1.78
2019-03-06T02:23:10.694Z,2.48
2019-03-06T02:25:43.990Z,2.23
2019-03-06T02:28:19.190Z,3.30
2019-03-06T02:30:52.750Z,3.76
2019-03-06T02:33:26.646Z,3.50
2019-03-06T02:35:59.875Z,3.21
2019-03-06T02:38:33.029Z,2.94
2019-03-06T02:41:06.715Z,2.23
2019-03-06T02:43:41.853Z,3.02
2019-03-06T02:46:15.344Z,3.05
2019-03-06T02:48:48.594Z,2.80
2019-03-06T02:51:21.899Z,2.63
2019-03-06T02:53:55.439Z,2.55
2019-03-06T02:56:30.147Z,2.74
2019-03-06T02:59:03.571Z,2.66
2019-03-06T03:01:36.879Z,2.61
2019-03-06T03:04:11.307Z,2.99
2019-03-06T03:06:44.711Z,3.27
2019-03-06T03:15:25.126Z,3.66
2019-03-06T03:17:58.529Z,3.82
2019-03-06T03:20:32.054Z,3.50
2019-03-06T03:23:06.662Z,3.21
2019-03-06T03:25:40.001Z,3.14
2019-03-06T03:28:13.202Z,3.12
2019-03-06T03:30:46.644Z,2.83
2019-03-06T03:33:20.133Z,3.25
2019-03-06T03:35:53.486Z,3.04
2019-03-06T03:38:26.744Z,3.52
2019-03-06T03:41:00.191Z,3.48
2019-03-06T03:43:33.489Z,4.13
2019-03-06T03:46:06.923Z,4.18
2019-03-06T03:48:40.570Z,4.03
2019-03-06T03:51:13.955Z,4.25
2019-03-06T03:53:47.438Z,4.22
2019-03-06T03:56:20.863Z,3.68
2019-03-06T03:58:54.447Z,3.71
2019-03-06T04:01:27.879Z,3.69
2019-03-06T04:04:01.193Z,4.08
2019-03-06T04:06:34.595Z,3.90
2019-03-06T04:09:08.688Z,3.99
2019-03-06T04:11:43.039Z,4.24
2019-03-06T04:14:16.697Z,4.11
2019-03-06T04:16:50.054Z,3.98
2019-03-06T04:19:23.325Z,3.96
2019-03-06T04:21:56.617Z,3.79
2019-03-06T04:24:30.190Z,3.63
2019-03-06T04:27:03.515Z,3.89
2019-03-06T04:29:36.801Z,4.21
2019-03-06T04:32:12.968Z,4.14
2019-03-06T04:34:45.991Z,4.14
2019-03-06T04:37:19.288Z,3.95
2019-03-06T04:39:52.812Z,3.74
2019-03-06T04:42:25.979Z,3.50
2019-03-06T04:44:59.358Z,3.97
2019-03-06T04:47:35.684Z,3.59
2019-03-06T04:50:11.247Z,3.76
2019-03-06T04:52:44.925Z,3.81
2019-03-06T04:55:19.622Z,3.85
2019-03-06T04:57:53.663Z,3.92
2019-03-06T05:00:28.776Z,4.01
2019-03-06T05:03:14.611Z,4.17
2019-03-06T05:05:47.608Z,3.86
2019-03-06T05:08:21.444Z,3.95
2019-03-06T05:10:55.287Z,3.82
2019-03-06T05:13:32.137Z,4.07
2019-03-06T05:16:05.546Z,4.28
2019-03-06T05:18:40.485Z,4.19
2019-03-06T05:21:15.006Z,4.53
2019-03-06T05:23:48.332Z,4.37
2019-03-06T05:26:23.046Z,4.42
2019-03-06T05:28:56.571Z,4.74
2019-03-06T05:31:29.916Z,4.71
2019-03-06T05:34:03.614Z,4.60
2019-03-06T05:36:48.437Z,4.66
2019-03-06T05:39:21.655Z,4.18
2019-03-06T05:41:56.047Z,4.19
2019-03-06T05:44:29.391Z,4.34
2019-03-06T05:47:04.257Z,5.06
2019-03-06T05:49:37.621Z,4.50
2019-03-06T05:52:11.361Z,4.26
2019-03-06T05:54:44.642Z,4.47
2019-03-06T05:57:23.771Z,4.24
2019-03-06T05:59:58.070Z,4.11
2019-03-06T06:02:35.168Z,4.26
2019-03-06T06:05:11.245Z,4.26
2019-03-06T06:07:48.181Z,4.32
2019-03-06T06:10:38.530Z,4.58
2019-03-06T06:13:13.146Z,4.28
2019-03-06T06:16:03.653Z,4.59
2019-03-06T06:18:39.686Z,4.25
2019-03-06T06:21:12.993Z,4.68
2019-03-06T06:23:49.338Z,4.83
2019-03-06T06:26:25.747Z,4.35
2019-03-06T06:28:57.218Z,4.13
2019-03-06T06:31:30.559Z,4.15
2019-03-06T06:34:03.894Z,4.14
2019-03-06T06:36:39.012Z,4.04
2019-03-06T06:39:12.264Z,4.16
2019-03-06T06:41:48.657Z,4.12
2019-03-06T06:44:22.021Z,4.23
2019-03-06T06:46:55.238Z,4.13
2019-03-06T06:49:29.421Z,3.89
2019-03-06T06:52:11.258Z,4.19
2019-03-06T06:55:14.895Z,4.25
2019-03-06T06:58:16.186Z,4.47
2019-03-06T07:01:09.857Z,4.46
2019-03-06T07:04:03.162Z,4.16
2019-03-06T07:06:36.528Z,4.14
2019-03-06T07:09:10.482Z,3.81
2019-03-06T07:11:44.822Z,3.74
2019-03-06T07:14:18.029Z,3.87
2019-03-06T07:16:53.159Z,4.01
2019-03-06T07:19:25.867Z,3.88
2019-03-06T07:21:59.306Z,4.02
2019-03-06T07:24:33.050Z,4.07
2019-03-06T07:27:06.959Z,3.93
2019-03-06T07:29:40.165Z,3.97
2019-03-06T07:32:13.615Z,3.73
2019-03-06T07:35:22.186Z,3.77
2019-03-06T07:37:55.541Z,3.84
2019-03-06T07:40:30.181Z,3.81
2019-03-06T07:43:03.758Z,3.78
2019-03-06T07:45:37.454Z,3.78
2019-03-06T07:48:11.014Z,3.90
2019-03-06T07:50:45.215Z,3.98
2019-03-06T07:53:51.597Z,3.79
2019-03-06T07:56:25.353Z,3.80
2019-03-06T07:59:00.497Z,3.59
2019-03-06T08:01:41.482Z,3.55
2019-03-06T08:04:16.488Z,3.54
2019-03-06T08:06:49.925Z,3.60
2019-03-06T08:09:24.553Z,3.54
2019-03-06T08:11:58.029Z,3.74
2019-03-06T08:14:31.574Z,3.73
2019-03-06T08:17:06.484Z,3.82
2019-03-06T08:19:40.327Z,3.81
2019-03-06T08:22:14.615Z,3.67
2019-03-06T08:24:48.048Z,3.83
2019-03-06T08:27:21.381Z,3.73
2019-03-06T08:29:55.059Z,3.63
2019-03-06T08:32:30.050Z,3.51
2019-03-06T08:35:04.615Z,3.42
2019-03-06T08:37:38.457Z,3.50
2019-03-06T08:40:13.285Z,3.44
2019-03-06T08:42:48.922Z,3.25
2019-03-06T08:45:25.577Z,3.15
2019-03-06T08:47:57.101Z,2.99
2019-03-06T08:50:30.638Z,3.02
2019-03-06T08:53:04.318Z,2.94
2019-03-06T08:55:37.845Z,2.91
2019-03-06T08:58:11.376Z,2.87
2019-03-06T09:00:45.015Z,2.90
2019-03-06T09:03:18.700Z,2.90
2019-03-06T09:05:57.730Z,2.68
2019-03-06T09:08:32.143Z,2.64
2019-03-06T09:11:07.397Z,2.56
2019-03-06T09:13:42.692Z,2.66
2019-03-06T09:16:16.238Z,2.54
2019-03-06T09:18:49.700Z,2.57
2019-03-06T09:21:23.824Z,2.45
2019-03-06T09:23:59.555Z,2.33
2019-03-06T09:26:33.715Z,2.36
2019-03-06T09:29:11.273Z,2.22
2019-03-06T09:31:45.777Z,2.27
2019-03-06T09:34:20.657Z,2.28
2019-03-06T09:36:54.262Z,2.19
2019-03-06T09:39:27.493Z,2.13
2019-03-06T09:42:01.163Z,2.11
2019-03-06T09:44:34.587Z,2.13
2019-03-06T09:47:08.804Z,1.97
2019-03-06T09:49:42.347Z,1.99
2019-03-06T09:52:18.755Z,2.07
2019-03-06T09:54:54.964Z,2.05
2019-03-06T09:57:29.494Z,1.85
2019-03-06T10:00:03.016Z,1.88
2019-03-06T10:02:36.531Z,1.98
2019-03-06T10:05:11.214Z,2.02
2019-03-06T10:07:45.763Z,2.00
2019-03-06T10:10:19.664Z,1.85
2019-03-06T10:12:53.422Z,1.72
2019-03-06T10:15:31.799Z,1.58
2019-03-06T10:18:05.156Z,1.38
2019-03-06T10:20:38.732Z,1.30
2019-03-06T10:23:15.039Z,1.35
2019-03-06T10:25:50.633Z,1.26
2019-03-06T10:28:27.955Z,1.19
2019-03-06T10:31:02.889Z,1.28
2019-03-06T10:33:36.592Z,1.45
2019-03-06T10:36:10.416Z,1.43
2019-03-06T10:38:44.569Z,1.39
2019-03-06T10:41:19.896Z,1.34
2019-03-06T10:43:54.653Z,1.31
2019-03-06T10:46:28.200Z,1.33
2019-03-06T10:49:04.110Z,1.35
2019-03-06T10:51:37.649Z,1.29
2019-03-06T10:54:11.190Z,1.25
2019-03-06T10:56:44.917Z,1.32
2019-03-06T10:59:19.262Z,1.27
2019-03-06T11:01:53.324Z,1.21
2019-03-06T11:04:28.337Z,1.29
2019-03-06T11:07:03.462Z,1.27
2019-03-06T11:09:40.425Z,1.25
2019-03-06T11:12:17.548Z,1.17
2019-03-06T11:14:57.250Z,1.00
2019-03-06T11:17:32.632Z,0.99
2019-03-06T11:20:13.373Z,0.91
2019-03-06T11:22:48.995Z,1.06
2019-03-06T11:25:28.812Z,1.03
2019-03-06T11:28:04.296Z,0.90
2019-03-06T11:30:46.401Z,0.94
2019-03-06T11:33:22.441Z,0.93
2019-03-06T11:36:01.089Z,0.82
2019-03-06T11:38:36.372Z,0.62
2019-03-06T11:41:12.465Z,0.50
2019-03-06T11:43:52.773Z,0.68
2019-03-06T11:46:28.139Z,0.69
2019-03-06T11:49:03.445Z,0.68
2019-03-06T11:51:39.456Z,0.59
2019-03-06T11:54:19.754Z,0.60
2019-03-06T11:56:55.018Z,0.65
2019-03-06T11:59:31.694Z,0.65
2019-03-06T12:02:12.421Z,0.56
2019-03-06T12:04:47.654Z,0.55
2019-03-06T12:07:23.772Z,0.57
2019-03-06T12:10:04.253Z,0.59
2019-03-06T12:12:39.841Z,0.49
2019-03-06T12:15:16.849Z,0.39
2019-03-06T12:17:51.893Z,0.44
2019-03-06T12:20:29.332Z,0.50
2019-03-06T12:23:04.896Z,0.40
2019-03-06T12:25:42.618Z,0.44
2019-03-06T12:28:20.170Z,0.57
2019-03-06T12:30:55.325Z,0.50
2019-03-06T12:33:32.561Z,0.49
2019-03-06T12:36:07.707Z,0.56
2019-03-06T12:38:42.449Z,0.56
2019-03-06T12:41:17.458Z,0.45
2019-03-06T12:43:52.779Z,0.55
2019-03-06T12:46:27.923Z,0.50
2019-03-06T12:49:04.224Z,0.50
2019-03-06T12:51:40.035Z,0.14
2019-03-06T12:54:14.532Z,0.00
2019-03-06T12:56:48.417Z,0.08
2019-03-06T12:59:22.904Z,0.05
2019-03-06T13:02:13.249Z,-0.13
2019-03-06T13:04:53.469Z,-0.28
2019-03-06T13:07:36.306Z,-0.37
2019-03-06T13:10:17.332Z,-0.44
2019-03-06T13:12:51.971Z,-0.60
2019-03-06T13:15:31.423Z,-0.59
2019-03-06T13:18:05.496Z,-0.54
2019-03-06T13:20:39.147Z,-0.54
2019-03-06T13:23:14.152Z,-0.73
2019-03-06T13:25:49.913Z,-0.79
2019-03-06T13:28:26.215Z,-0.76
2019-03-06T13:30:59.872Z,-0.85
2019-03-06T13:33:34.686Z,-1.01
2019-03-06T13:36:09.838Z,-1.02
2019-03-06T13:38:44.880Z,-0.97
2019-03-06T13:41:22.386Z,-1.02
2019-03-06T13:43:57.148Z,-1.02
2019-03-06T13:46:37.717Z,-1.09
2019-03-06T13:49:12.346Z,-1.18
2019-03-06T13:51:47.118Z,-1.22
2019-03-06T13:54:23.738Z,-1.27
2019-03-06T13:56:59.175Z,-1.31
2019-03-06T13:59:41.087Z,-1.35
2019-03-06T14:02:16.991Z,-1.33
2019-03-06T14:04:52.232Z,-1.36
2019-03-06T14:07:30.039Z,-1.32
2019-03-06T14:16:04.120Z,-1.49
2019-03-06T14:18:39.833Z,-1.47
2019-03-06T14:21:14.076Z,-1.40
2019-03-06T14:23:48.066Z,-1.54
2019-03-06T14:26:22.531Z,-1.50
2019-03-06T14:28:56.839Z,-1.56
2019-03-06T14:31:37.253Z,-1.67
2019-03-06T14:34:10.343Z,-1.66
2019-03-06T14:36:46.482Z,-1.71
2019-03-06T14:39:31.344Z,-1.73
2019-03-06T14:42:05.604Z,-1.71
2019-03-06T14:44:40.060Z,-1.74
2019-03-06T14:47:16.634Z,-1.72
2019-03-06T14:49:50.898Z,-1.67
2019-03-06T14:52:29.523Z,-1.72
2019-03-06T14:55:04.445Z,-1.84
2019-03-06T14:57:38.789Z,-1.85
2019-03-06T15:00:17.120Z,-1.78
2019-03-06T15:02:50.911Z,-1.78
2019-03-06T15:05:24.291Z,-1.83
2019-03-06T15:07:58.287Z,-1.88
2019-03-06T15:10:32.342Z,-1.76
2019-03-06T15:13:06.994Z,-1.88
2019-03-06T15:15:42.452Z,-1.94
2019-03-06T15:18:16.464Z,-1.94
2019-03-06T15:20:50.686Z,-1.97
2019-03-06T15:23:26.305Z,-2.03
2019-03-06T15:26:00.009Z,-2.03
2019-03-06T15:28:33.954Z,-2.05
2019-03-06T15:31:09.404Z,-2.09
2019-03-06T15:33:42.132Z,-2.06
2019-03-06T15:36:15.473Z,-2.16
2019-03-06T15:38:49.916Z,-2.13
2019-03-06T15:41:23.481Z,-2.27
2019-03-06T15:43:56.860Z,-2.33
2019-03-06T15:46:30.354Z,-2.40
2019-03-06T15:49:03.633Z,-2.44
2019-03-06T15:51:37.896Z,-2.32
2019-03-06T15:54:12.345Z,-2.41
2019-03-06T15:56:46.172Z,-2.54
2019-03-06T15:59:19.798Z,-2.58
2019-03-06T16:01:53.526Z,-2.50
2019-03-06T16:04:27.337Z,-2.53
2019-03-06T16:07:01.944Z,-2.42
2019-03-06T16:09:37.455Z,-2.57
2019-03-06T16:12:12.339Z,-2.69
2019-03-06T16:14:47.071Z,-2.66
2019-03-06T16:17:21.315Z,-2.61
2019-03-06T16:19:54.831Z,-2.66
2019-03-06T16:22:29.295Z,-2.62
2019-03-06T16:25:03.053Z,-2.62
2019-03-06T16:27:37.777Z,-2.69
2019-03-06T16:30:24.740Z,-2.73
2019-03-06T16:32:58.283Z,-2.57
2019-03-06T16:35:31.855Z,-2.74
2019-03-06T16:38:06.625Z,-2.62
2019-03-06T16:40:41.279Z,-2.60
2019-03-06T16:43:16.471Z,-2.53
2019-03-06T16:45:51.282Z,-2.48
2019-03-06T16:48:26.015Z,-2.51
2019-03-06T16:51:00.614Z,-2.50
2019-03-06T16:53:35.302Z,-2.50
2019-03-06T16:56:10.203Z,-2.30
2019-03-06T16:58:45.841Z,-2.31
2019-03-06T17:01:20.043Z,-2.42
2019-03-06T17:03:55.828Z,-2.32
2019-03-06T17:06:30.030Z,-2.39
2019-03-06T17:09:05.295Z,-2.57
2019-03-06T17:11:41.637Z,-2.72
2019-03-06T17:14:16.226Z,-2.63
2019-03-06T17:16:50.180Z,-2.73
2019-03-06T17:19:24.481Z,-2.63
2019-03-06T17:21:58.859Z,-2.76
2019-03-06T17:24:34.826Z,-2.78
2019-03-06T17:27:09.259Z,-2.64
2019-03-06T17:29:47.650Z,-2.67
2019-03-06T17:32:22.615Z,-2.65
2019-03-06T17:34:58.047Z,-2.53
2019-03-06T17:37:32.233Z,-2.54
2019-03-06T17:40:07.658Z,-2.82
2019-03-06T17:42:42.512Z,-2.87
2019-03-06T17:45:17.844Z,-2.70
2019-03-06T17:47:52.596Z,-2.74
2019-03-06T17:50:31.449Z,-2.78
2019-03-06T17:53:05.898Z,-2.66
2019-03-06T17:55:39.943Z,-2.65
2019-03-06T17:58:13.887Z,-2.53
2019-03-06T18:00:47.561Z,-2.47
2019-03-06T18:03:21.067Z,-2.47
2019-03-06T18:05:59.243Z,-2.35
2019-03-06T18:08:32.986Z,-2.40
2019-03-06T18:11:06.564Z,-2.42
2019-03-06T18:13:40.892Z,-2.45
2019-03-06T18:16:14.440Z,-2.45
2019-03-06T18:18:47.730Z,-2.40
2019-03-06T18:21:21.920Z,-2.52
2019-03-06T18:23:55.429Z,-2.53
2019-03-06T18:26:28.606Z,-2.40
2019-03-06T18:29:02.109Z,-2.51
2019-03-06T18:31:37.024Z,-2.43
2019-03-06T18:34:13.024Z,-2.65
2019-03-06T18:36:46.904Z,-2.57
2019-03-06T18:39:22.634Z,-2.63
2019-03-06T18:41:57.354Z,-2.73
2019-03-06T18:44:33.282Z,-2.76
2019-03-06T18:47:10.246Z,-2.87
2019-03-06T18:49:42.926Z,-2.72
2019-03-06T18:52:19.642Z,-2.79
2019-03-06T18:54:56.471Z,-2.84
2019-03-06T18:57:30.310Z,-2.78
2019-03-06T19:00:06.145Z,-2.80
2019-03-06T19:02:40.872Z,-2.83
2019-03-06T19:05:15.088Z,-2.74
2019-03-06T19:07:48.603Z,-2.82
2019-03-06T19:10:23.741Z,-2.85
2019-03-06T19:12:59.942Z,-2.86
2019-03-06T19:15:34.824Z,-2.87
2019-03-06T19:18:08.498Z,-2.90
2019-03-06T19:20:41.835Z,-2.82
2019-03-06T19:23:15.649Z,-2.73
2019-03-06T19:25:49.059Z,-2.77
2019-03-06T19:28:22.376Z,-2.84
2019-03-06T19:30:56.068Z,-2.86
2019-03-06T19:33:29.299Z,-2.80
2019-03-06T19:36:02.820Z,-2.90
2019-03-06T19:38:36.038Z,-2.92
2019-03-06T19:41:09.560Z,-2.82
2019-03-06T19:43:42.954Z,-2.69
2019-03-06T19:46:16.585Z,-2.82
2019-03-06T19:48:49.798Z,-2.85
2019-03-06T19:51:23.142Z,-2.88
2019-03-06T19:53:57.532Z,-2.81
2019-03-06T19:56:30.902Z,-2.93
2019-03-06T19:59:04.261Z,-2.75
2019-03-06T20:01:38.034Z,-2.67
2019-03-06T20:04:11.880Z,-2.78
2019-03-06T20:06:45.740Z,-2.82
2019-03-06T20:09:29.245Z,-2.85
2019-03-06T20:12:03.154Z,-2.79
2019-03-06T20:14:38.717Z,-2.92
2019-03-06T20:17:12.628Z,-2.66
2019-03-06T20:19:49.227Z,-2.70
2019-03-06T20:22:23.988Z,-2.80
2019-03-06T20:24:57.710Z,-2.69
2019-03-06T20:27:31.553Z,-2.75
2019-03-06T20:30:06.177Z,-2.64
2019-03-06T20:32:39.821Z,-2.74
2019-03-06T20:35:13.978Z,-2.71
2019-03-06T20:37:47.979Z,-2.78
2019-03-06T20:40:22.743Z,-2.87
2019-03-06T20:42:56.954Z,-2.74
2019-03-06T20:45:34.423Z,-2.93
2019-03-06T20:48:06.796Z,-3.00
2019-03-06T20:50:41.083Z,-3.07
2019-03-06T20:53:17.390Z,-3.25
2019-03-06T20:55:50.158Z,-3.12
2019-03-06T20:58:25.460Z,-3.10
2019-03-06T21:04:02.782Z,-3.22
2019-03-06T21:06:36.535Z,-3.07
2019-03-06T21:09:11.890Z,-3.12
2019-03-06T21:11:45.640Z,-3.14
2019-03-06T21:14:19.358Z,-3.16
2019-03-06T21:16:54.882Z,-3.08
2019-03-06T21:19:28.442Z,-2.93
2019-03-06T21:22:23.203Z,-2.88
2019-03-06T21:24:36.760Z,-2.95
2019-03-06T21:27:11.474Z,-2.82
2019-03-06T21:29:46.111Z,-3.04
2019-03-06T21:32:19.805Z,-3.04
2019-03-06T21:34:53.783Z,-3.16
2019-03-06T21:37:27.600Z,-3.06
2019-03-06T21:40:04.333Z,-3.05
2019-03-06T21:42:38.032Z,-3.13
2019-03-06T21:45:13.960Z,-3.16
2019-03-06T21:47:48.942Z,-3.09
2019-03-06T21:50:23.173Z,-3.24
2019-03-06T21:52:56.848Z,-3.29
2019-03-06T21:55:30.581Z,-3.32
2019-03-06T21:58:04.427Z,-3.46
2019-03-06T22:00:54.969Z,-3.27
2019-03-06T22:03:27.661Z,-3.41
2019-03-06T22:06:02.872Z,-3.61
2019-03-06T22:08:36.535Z,-3.46
2019-03-06T22:11:10.247Z,-3.28
2019-03-06T22:13:43.964Z,-3.24
2019-03-06T22:16:46.316Z,-3.28
2019-03-06T22:18:58.207Z,-3.27
2019-03-06T22:21:33.359Z,-3.04
2019-03-06T22:24:08.096Z,-3.17
2019-03-06T22:26:41.844Z,-3.09
2019-03-06T22:29:15.465Z,-3.18
2019-03-06T22:31:50.024Z,-3.31
2019-03-06T22:34:23.740Z,-3.34
2019-03-06T22:37:00.065Z,-3.07
2019-03-06T22:39:33.893Z,-3.26
2019-03-06T22:42:07.662Z,-3.17
2019-03-06T22:44:41.317Z,-2.98
2019-03-06T22:47:15.390Z,-2.93
2019-03-06T22:49:49.477Z,-2.82
2019-03-06T22:52:32.243Z,-2.66
2019-03-06T22:55:12.359Z,-2.56
2019-03-06T22:57:43.726Z,-2.49
2019-03-06T23:00:36.447Z,-2.45
2019-03-06T23:03:10.766Z,-2.45
2019-03-06T23:05:44.531Z,-2.50
2019-03-06T23:08:18.385Z,-2.15
2019-03-06T23:10:52.784Z,-2.24
2019-03-06T23:13:27.467Z,-2.15
2019-03-06T23:16:03.449Z,-1.91
2019-03-06T23:18:37.327Z,-1.71
2019-03-06T23:21:11.040Z,-1.56
2019-03-06T23:23:45.165Z,-1.32
2019-03-06T23:26:18.903Z,-1.20
2019-03-06T23:28:52.730Z,-0.79
2019-03-06T23:31:27.088Z,-0.22
2019-03-06T23:34:01.438Z,-0.10
2019-03-06T23:36:37.416Z,-0.41
2019-03-06T23:39:13.670Z,-1.05
2019-03-06T23:41:47.579Z,-0.22
2019-03-06T23:44:21.616Z,-0.69
2019-03-06T23:46:57.681Z,-0.44
2019-03-06T23:49:31.659Z,0.24
2019-03-06T23:52:05.498Z,0.85
2019-03-06T23:54:51.830Z,1.41
2019-03-06T23:57:25.700Z,2.46
2019-03-06T23:59:59.551Z,3.67
